createdAt,value
2018-09-05T00:00:38.781Z,19.50
2018-09-05T00:03:07.820Z,17.10
2018-09-05T00:05:36.916Z,18.30
2018-09-05T00:08:06.190Z,17.83
2018-09-05T00:10:35.363Z,19.27
2018-09-05T00:13:04.555Z,19.23
2018-09-05T00:15:33.707Z,17.57
2018-09-05T00:18:02.964Z,18.50
2018-09-05T00:20:32.168Z,20.27
2018-09-05T00:23:01.295Z,18.50
2018-09-05T00:25:30.664Z,17.70
2018-09-05T00:27:59.833Z,22.90
2018-09-05T00:30:29.145Z,23.10
2018-09-05T00:32:58.344Z,20.10
2018-09-05T00:35:27.759Z,17.27
2018-09-05T00:37:57.088Z,24.43
2018-09-05T00:40:26.396Z,17.80
2018-09-05T00:42:55.768Z,18.23
2018-09-05T00:45:25.188Z,17.03
2018-09-05T00:47:54.379Z,16.90
2018-09-05T00:50:23.660Z,19.90
2018-09-05T00:52:52.843Z,22.63
2018-09-05T01:08:21.929Z,18.43
2018-09-05T01:10:51.611Z,23.13
2018-09-05T01:13:21.008Z,23.70
2018-09-05T01:15:50.331Z,26.10
2018-09-05T01:18:19.935Z,18.13
2018-09-05T01:20:49.388Z,21.90
2018-09-05T01:23:19.078Z,23.60
2018-09-05T01:25:48.431Z,21.33
2018-09-05T01:28:18.362Z,19.50
2018-09-05T01:30:47.722Z,19.33
2018-09-05T01:33:17.111Z,21.07
2018-09-05T01:35:46.386Z,19.53
2018-09-05T01:38:15.674Z,21.57
2018-09-05T01:40:44.895Z,19.60
2018-09-05T01:43:14.248Z,19.93
2018-09-05T01:45:43.403Z,18.90
2018-09-05T01:48:12.842Z,19.67
2018-09-05T01:50:42.775Z,18.90
2018-09-05T01:53:12.396Z,22.13
2018-09-05T01:55:41.416Z,18.57
2018-09-05T01:58:10.451Z,19.57
2018-09-05T02:00:39.619Z,21.80
2018-09-05T02:03:08.883Z,19.30
2018-09-05T02:05:37.952Z,17.40
2018-09-05T02:08:07.184Z,16.97
2018-09-05T02:10:36.905Z,17.50
2018-09-05T02:13:06.105Z,18.53
2018-09-05T02:15:35.156Z,16.23
2018-09-05T02:18:04.647Z,20.17
2018-09-05T02:20:33.821Z,19.77
2018-09-05T02:23:02.879Z,17.80
2018-09-05T02:25:32.276Z,21.70
2018-09-05T02:28:01.576Z,22.13
2018-09-05T02:30:30.759Z,19.20
2018-09-05T02:32:59.944Z,20.87
2018-09-05T02:35:29.183Z,18.17
2018-09-05T02:37:58.348Z,20.63
2018-09-05T02:40:27.704Z,21.50
2018-09-05T02:42:57.115Z,17.13
2018-09-05T02:45:26.575Z,17.37
2018-09-05T02:47:55.953Z,18.47
2018-09-05T02:50:25.321Z,20.27
2018-09-05T02:52:54.971Z,15.77
2018-09-05T02:55:30.021Z,20.40
2018-09-05T02:57:59.200Z,23.50
2018-09-05T03:00:28.528Z,20.20
2018-09-05T03:02:57.701Z,20.93
2018-09-05T03:05:27.345Z,17.27
2018-09-05T03:07:56.795Z,18.67
2018-09-05T03:10:26.212Z,19.30
2018-09-05T03:12:55.646Z,18.07
2018-09-05T03:15:24.920Z,18.27
2018-09-05T03:17:54.419Z,21.27
2018-09-05T03:20:23.872Z,21.70
2018-09-05T03:22:53.252Z,16.47
2018-09-05T03:25:22.836Z,20.60
2018-09-05T03:27:52.473Z,21.77
2018-09-05T03:30:21.938Z,17.37
2018-09-05T03:32:51.420Z,18.67
2018-09-05T03:35:20.565Z,18.00
2018-09-05T03:37:50.079Z,18.63
2018-09-05T03:40:19.329Z,19.87
2018-09-05T03:42:48.534Z,22.43
2018-09-05T03:45:17.977Z,19.97
2018-09-05T03:47:47.636Z,18.20
2018-09-05T03:50:17.022Z,19.20
2018-09-05T03:52:46.247Z,16.80
2018-09-05T03:55:15.682Z,22.30
2018-09-05T03:57:45.084Z,20.13
2018-09-05T04:00:14.417Z,26.53
2018-09-05T04:02:43.699Z,21.03
2018-09-05T04:05:12.971Z,17.90
2018-09-05T04:07:42.407Z,19.47
2018-09-05T04:10:11.670Z,19.50
2018-09-05T04:12:41.483Z,21.70
2018-09-05T04:15:11.399Z,22.00
2018-09-05T04:17:40.481Z,19.53
2018-09-05T04:20:10.320Z,19.77
2018-09-05T04:22:39.363Z,19.30
2018-09-05T04:25:08.552Z,17.80
2018-09-05T04:27:37.722Z,28.30
2018-09-05T04:30:07.362Z,21.30
2018-09-05T04:32:36.599Z,18.23
2018-09-05T04:35:05.758Z,20.73
2018-09-05T04:37:34.908Z,20.57
2018-09-05T04:40:04.415Z,20.50
2018-09-05T04:42:33.768Z,23.63
2018-09-05T04:45:03.440Z,24.63
2018-09-05T04:47:32.567Z,19.77
2018-09-05T04:50:01.795Z,20.83
2018-09-05T04:52:31.313Z,21.03
2018-09-05T04:55:00.708Z,21.53
2018-09-05T04:57:30.115Z,23.47
2018-09-05T04:59:59.408Z,22.17
2018-09-05T05:02:28.764Z,24.73
2018-09-05T05:04:58.113Z,24.53
2018-09-05T05:07:27.747Z,27.53
2018-09-05T05:09:57.208Z,20.33
2018-09-05T05:12:26.515Z,21.70
2018-09-05T05:14:55.844Z,20.03
2018-09-05T05:17:25.096Z,23.70
2018-09-05T05:19:54.493Z,19.90
2018-09-05T05:22:23.840Z,22.17
2018-09-05T05:24:53.133Z,20.53
2018-09-05T05:27:22.423Z,22.13
2018-09-05T05:29:51.868Z,21.87
2018-09-05T05:32:21.157Z,25.03
2018-09-05T05:34:50.718Z,23.57
2018-09-05T05:37:20.123Z,23.30
2018-09-05T05:39:49.454Z,18.90
2018-09-05T05:42:18.966Z,18.47
2018-09-05T05:44:48.173Z,23.17
2018-09-05T05:47:17.439Z,20.40
2018-09-05T05:49:46.727Z,21.83
2018-09-05T05:52:16.737Z,19.40
2018-09-05T05:54:45.888Z,76.57
2018-09-05T05:57:15.105Z,45.77
2018-09-05T05:59:44.315Z,55.13
2018-09-05T06:02:13.381Z,24.23
2018-09-05T06:04:42.812Z,21.60
2018-09-05T06:07:11.919Z,60.40
2018-09-05T06:09:41.173Z,32.53
2018-09-05T06:12:10.686Z,20.53
2018-09-05T06:14:39.931Z,20.57
2018-09-05T06:17:09.127Z,18.70
2018-09-05T06:19:38.392Z,18.90
2018-09-05T06:22:07.651Z,17.47
2018-09-05T06:24:36.993Z,21.20
2018-09-05T06:27:06.216Z,19.97
2018-09-05T06:29:35.768Z,21.17
2018-09-05T06:32:04.966Z,21.63
2018-09-05T06:34:34.227Z,20.63
2018-09-05T06:37:03.347Z,22.20
2018-09-05T06:39:32.662Z,23.00
2018-09-05T06:42:01.927Z,21.10
2018-09-05T06:44:31.143Z,30.70
2018-09-05T06:47:00.612Z,21.13
2018-09-05T06:49:29.826Z,25.83
2018-09-05T06:51:58.951Z,22.77
2018-09-05T06:54:28.216Z,20.07
2018-09-05T06:56:57.719Z,22.37
2018-09-05T06:59:26.915Z,21.50
2018-09-05T07:01:56.032Z,21.93
2018-09-05T07:04:25.160Z,20.13
2018-09-05T07:06:54.423Z,21.70
2018-09-05T07:09:23.579Z,23.00
2018-09-05T07:11:52.694Z,19.60
2018-09-05T07:14:21.893Z,23.07
2018-09-05T07:16:51.091Z,20.20
2018-09-05T07:19:20.408Z,26.57
2018-09-05T07:21:49.784Z,21.53
2018-09-05T07:24:19.000Z,24.37
2018-09-05T07:26:48.299Z,21.07
2018-09-05T07:29:17.641Z,23.17
2018-09-05T07:31:49.523Z,21.77
2018-09-05T07:34:18.688Z,26.30
2018-09-05T07:36:47.994Z,27.97
2018-09-05T07:39:17.098Z,21.47
2018-09-05T07:41:46.243Z,22.43
2018-09-05T07:44:15.340Z,21.80
2018-09-05T07:46:44.464Z,20.43
2018-09-05T07:49:13.558Z,25.07
2018-09-05T07:51:42.711Z,21.07
2018-09-05T07:54:11.766Z,23.93
2018-09-05T07:56:40.811Z,26.67
2018-09-05T07:59:10.101Z,22.53
2018-09-05T08:01:39.248Z,19.13
2018-09-05T08:04:09.089Z,23.40
2018-09-05T08:06:38.184Z,21.50
2018-09-05T08:09:10.180Z,19.93
2018-09-05T08:11:39.726Z,22.33
2018-09-05T08:14:08.894Z,28.90
2018-09-05T08:16:38.025Z,20.30
2018-09-05T08:19:07.083Z,20.10
2018-09-05T08:21:36.264Z,23.30
2018-09-05T08:24:05.366Z,22.63
2018-09-05T08:26:34.491Z,22.70
2018-09-05T08:29:03.671Z,19.90
2018-09-05T08:31:32.946Z,22.70
2018-09-05T08:34:02.100Z,22.50
2018-09-05T08:36:31.552Z,22.23
2018-09-05T08:39:00.602Z,20.50
2018-09-05T08:41:29.659Z,21.07
2018-09-05T08:43:58.784Z,17.60
2018-09-05T08:46:30.503Z,17.60
2018-09-05T08:48:59.797Z,17.83
2018-09-05T08:51:29.140Z,14.93
2018-09-05T08:53:58.428Z,19.47
2018-09-05T08:56:28.223Z,16.20
2018-09-05T08:58:57.482Z,21.37
2018-09-05T09:01:26.915Z,16.83
2018-09-05T09:03:56.123Z,18.40
2018-09-05T09:06:25.945Z,21.73
2018-09-05T09:08:55.048Z,18.50
2018-09-05T09:11:24.238Z,19.10
2018-09-05T09:13:53.362Z,15.33
2018-09-05T09:16:23.889Z,18.00
2018-09-05T09:18:53.872Z,16.83
2018-09-05T09:21:23.242Z,17.03
2018-09-05T09:23:52.913Z,14.60
2018-09-05T09:26:22.309Z,32.97
2018-09-05T09:28:51.489Z,17.83
2018-09-05T09:31:20.788Z,17.23
2018-09-05T09:33:50.305Z,15.70
2018-09-05T09:36:19.792Z,18.43
2018-09-05T09:38:49.139Z,16.00
2018-09-05T09:41:18.524Z,18.20
2018-09-05T09:43:48.047Z,15.00
2018-09-05T09:46:17.845Z,14.93
2018-09-05T09:48:47.229Z,21.47
2018-09-05T09:51:16.693Z,15.17
2018-09-05T09:53:46.795Z,16.73
2018-09-05T09:56:16.015Z,19.00
2018-09-05T09:58:45.279Z,18.60
2018-09-05T10:01:19.931Z,16.20
2018-09-05T10:03:54.945Z,17.53
2018-09-05T10:06:29.649Z,19.47
2018-09-05T10:09:04.058Z,16.87
2018-09-05T10:11:38.511Z,18.43
2018-09-05T10:14:11.967Z,18.33
2018-09-05T10:16:46.306Z,18.10
2018-09-05T10:19:15.459Z,17.70
2018-09-05T10:21:44.584Z,14.67
2018-09-05T10:24:13.807Z,14.00
2018-09-05T10:26:42.816Z,14.13
2018-09-05T10:29:11.944Z,18.13
2018-09-05T10:31:41.089Z,12.90
2018-09-05T10:34:10.233Z,12.63
2018-09-05T10:36:39.257Z,12.97
2018-09-05T10:39:09.820Z,15.67
2018-09-05T10:41:39.493Z,13.93
2018-09-05T10:44:09.326Z,13.77
2018-09-05T10:46:38.924Z,13.60
2018-09-05T10:49:08.792Z,19.20
2018-09-05T10:51:43.263Z,15.43
2018-09-05T10:54:12.535Z,14.50
2018-09-05T10:56:41.880Z,13.10
2018-09-05T10:59:10.936Z,13.80
2018-09-05T11:01:40.027Z,19.30
2018-09-05T11:04:09.331Z,14.07
2018-09-05T11:06:38.585Z,20.37
2018-09-05T11:09:10.563Z,16.40
2018-09-05T11:11:40.196Z,16.60
2018-09-05T11:14:10.223Z,15.23
2018-09-05T11:16:40.201Z,13.53
2018-09-05T11:19:10.010Z,15.47
2018-09-05T11:21:39.607Z,14.10
2018-09-05T11:24:09.047Z,13.43
2018-09-05T11:26:38.872Z,14.73
2018-09-05T11:29:08.211Z,19.00
2018-09-05T11:31:37.288Z,15.00
2018-09-05T11:34:06.351Z,13.80
2018-09-05T11:36:35.552Z,15.77
2018-09-05T11:39:08.672Z,17.33
2018-09-05T11:41:38.162Z,13.47
2018-09-05T11:44:07.772Z,16.03
2018-09-05T11:46:37.800Z,16.47
2018-09-05T11:49:08.274Z,16.27
2018-09-05T11:51:37.963Z,14.63
2018-09-05T11:54:08.305Z,12.80
2018-09-05T11:56:37.532Z,14.40
2018-09-05T11:59:07.039Z,15.90
2018-09-05T12:01:36.202Z,12.50
2018-09-05T12:04:05.504Z,13.10
2018-09-05T12:06:34.729Z,14.73
2018-09-05T12:09:07.083Z,12.40
2018-09-05T12:11:36.710Z,16.30
2018-09-05T12:14:06.810Z,12.93
2018-09-05T12:16:37.387Z,12.20
2018-09-05T12:19:07.511Z,12.60
2018-09-05T12:21:36.791Z,13.70
2018-09-05T12:24:06.093Z,13.17
2018-09-05T12:26:35.331Z,14.90
2018-09-05T12:29:07.480Z,13.07
2018-09-05T12:31:37.007Z,13.80
2018-09-05T12:34:06.465Z,13.13
2018-09-05T12:36:35.857Z,23.93
2018-09-05T12:39:09.175Z,11.33
2018-09-05T12:41:38.544Z,14.60
2018-09-05T12:44:07.896Z,14.07
2018-09-05T12:46:37.651Z,13.20
2018-09-05T12:49:06.812Z,13.30
2018-09-05T12:51:36.097Z,13.73
2018-09-05T12:54:05.729Z,17.43
2018-09-05T12:56:34.916Z,15.83
2018-09-05T12:59:04.186Z,14.17
2018-09-05T13:01:33.399Z,16.63
2018-09-05T13:04:02.800Z,13.60
2018-09-05T13:06:32.127Z,14.13
2018-09-05T13:09:01.377Z,15.37
2018-09-05T13:11:30.918Z,13.00
2018-09-05T13:14:00.401Z,13.90
2018-09-05T13:16:30.190Z,12.33
2018-09-05T13:19:00.186Z,13.40
2018-09-05T13:21:29.535Z,11.37
2018-09-05T13:23:58.872Z,10.90
2018-09-05T13:26:28.736Z,11.33
2018-09-05T13:28:58.410Z,15.17
2018-09-05T13:31:27.738Z,15.57
2018-09-05T13:33:56.974Z,11.50
2018-09-05T13:36:26.396Z,14.83
2018-09-05T13:38:55.767Z,12.17
2018-09-05T13:41:25.145Z,16.10
2018-09-05T13:43:54.644Z,16.33
2018-09-05T13:46:23.807Z,11.13
2018-09-05T13:48:52.916Z,10.67
2018-09-05T13:51:22.135Z,13.07
2018-09-05T13:53:51.375Z,13.27
2018-09-05T13:56:20.731Z,11.17
2018-09-05T13:58:49.797Z,10.90
2018-09-05T14:01:19.154Z,10.97
2018-09-05T14:03:48.288Z,12.23
2018-09-05T14:06:17.473Z,9.50
2018-09-05T14:08:46.577Z,19.33
2018-09-05T14:11:15.807Z,10.60
2018-09-05T14:13:44.932Z,16.90
2018-09-05T14:16:14.126Z,10.83
2018-09-05T14:18:43.554Z,10.20
2018-09-05T14:21:12.701Z,13.50
2018-09-05T14:23:41.944Z,13.00
2018-09-05T14:26:11.034Z,11.40
2018-09-05T14:28:40.301Z,12.30
2018-09-05T14:31:09.511Z,12.77
2018-09-05T14:33:39.016Z,12.43
2018-09-05T14:36:08.191Z,11.73
2018-09-05T14:38:37.323Z,11.53
2018-09-05T14:41:06.555Z,10.00
2018-09-05T14:43:35.675Z,13.00
2018-09-05T14:46:04.824Z,8.20
2018-09-05T14:48:34.677Z,9.17
2018-09-05T14:51:03.852Z,10.40
2018-09-05T14:53:33.016Z,12.67
2018-09-05T14:56:02.241Z,9.53
2018-09-05T14:58:31.348Z,8.37
2018-09-05T15:01:00.437Z,10.13
2018-09-05T15:03:29.553Z,11.07
2018-09-05T15:05:59.673Z,10.20
2018-09-05T15:08:28.679Z,9.47
2018-09-05T15:10:57.927Z,12.37
2018-09-05T15:13:27.142Z,11.57
2018-09-05T15:15:56.227Z,11.10
2018-09-05T15:18:25.428Z,8.20
2018-09-05T15:20:54.582Z,9.67
2018-09-05T15:23:24.000Z,10.43
2018-09-05T15:25:53.371Z,11.27
2018-09-05T15:28:22.482Z,8.50
2018-09-05T15:30:52.765Z,7.20
2018-09-05T15:33:21.836Z,11.40
2018-09-05T15:36:01.150Z,8.57
2018-09-05T15:38:43.443Z,11.00
2018-09-05T15:41:27.339Z,8.83
2018-09-05T15:43:56.545Z,9.57
2018-09-05T15:46:25.799Z,10.17
2018-09-05T15:48:55.056Z,10.60
2018-09-05T15:51:24.410Z,9.50
2018-09-05T15:53:53.849Z,9.57
2018-09-05T15:56:23.887Z,9.33
2018-09-05T15:58:53.301Z,9.70
2018-09-05T16:01:22.670Z,8.50
2018-09-05T16:03:51.817Z,7.20
2018-09-05T16:06:21.095Z,10.80
2018-09-05T16:08:50.424Z,10.23
2018-09-05T16:11:20.057Z,7.50
2018-09-05T16:13:49.647Z,8.43
2018-09-05T16:16:19.181Z,9.43
2018-09-05T16:18:49.083Z,9.43
2018-09-05T16:21:18.388Z,8.93
2018-09-05T16:23:47.774Z,9.73
2018-09-05T16:26:16.897Z,9.37
2018-09-05T16:28:46.521Z,8.47
2018-09-05T16:31:15.731Z,9.07
2018-09-05T16:33:44.899Z,7.80
2018-09-05T16:36:14.134Z,8.27
2018-09-05T16:38:45.693Z,7.73
2018-09-05T16:41:14.853Z,12.57
2018-09-05T16:43:44.432Z,9.13
2018-09-05T16:46:13.644Z,11.20
2018-09-05T16:48:42.992Z,11.63
2018-09-05T16:51:12.332Z,8.03
2018-09-05T16:53:41.544Z,8.80
2018-09-05T16:56:10.727Z,8.13
2018-09-05T16:58:39.915Z,10.63
2018-09-05T17:01:09.209Z,10.03
2018-09-05T17:03:38.452Z,9.90
2018-09-05T17:06:07.776Z,8.10
2018-09-05T17:08:36.920Z,9.70
2018-09-05T17:11:06.244Z,7.50
2018-09-05T17:13:35.289Z,8.70
2018-09-05T17:16:04.482Z,10.63
2018-09-05T17:18:33.693Z,8.20
2018-09-05T17:21:02.991Z,8.07
2018-09-05T17:23:32.189Z,11.03
2018-09-05T17:26:02.342Z,7.53
2018-09-05T17:28:31.820Z,8.60
2018-09-05T17:31:01.336Z,8.40
2018-09-05T17:33:30.797Z,9.90
2018-09-05T17:36:00.386Z,9.07
2018-09-05T17:38:29.992Z,9.27
2018-09-05T17:41:00.116Z,8.60
2018-09-05T17:43:29.696Z,10.30
2018-09-05T17:45:59.012Z,10.70
2018-09-05T17:48:28.799Z,12.40
2018-09-05T17:50:58.261Z,7.47
2018-09-05T17:53:27.532Z,8.53
2018-09-05T17:55:56.859Z,8.47
2018-09-05T17:58:26.483Z,8.73
2018-09-05T18:00:55.657Z,9.37
2018-09-05T18:03:24.881Z,8.80
2018-09-05T18:05:54.098Z,7.70
2018-09-05T18:08:23.394Z,10.97
2018-09-05T18:10:52.573Z,8.50
2018-09-05T18:13:21.864Z,11.10
2018-09-05T18:15:51.142Z,7.70
2018-09-05T18:18:20.452Z,12.50
2018-09-05T18:20:49.832Z,10.63
2018-09-05T18:23:19.100Z,8.43
2018-09-05T18:25:48.210Z,9.10
2018-09-05T18:28:17.434Z,9.30
2018-09-05T18:30:46.671Z,11.30
2018-09-05T18:33:15.798Z,10.00
2018-09-05T18:35:45.059Z,8.17
2018-09-05T18:38:14.471Z,10.87
2018-09-05T18:40:43.481Z,11.57
2018-09-05T18:43:12.669Z,10.40
2018-09-05T18:45:43.850Z,7.80
2018-09-05T18:48:12.998Z,9.63
2018-09-05T18:50:42.088Z,7.67
2018-09-05T18:53:12.468Z,8.50
2018-09-05T18:55:43.169Z,5.83
2018-09-05T18:58:12.626Z,13.87
2018-09-05T19:00:42.415Z,11.60
2018-09-05T19:03:11.796Z,9.97
2018-09-05T19:05:41.460Z,9.27
2018-09-05T19:08:10.812Z,7.27
2018-09-05T19:10:40.501Z,8.43
2018-09-05T19:13:09.850Z,12.60
2018-09-05T19:15:39.758Z,9.83
2018-09-05T19:18:08.987Z,11.60
2018-09-05T19:20:38.404Z,8.93
2018-09-05T19:23:07.653Z,10.80
2018-09-05T19:25:36.873Z,8.30
2018-09-05T19:28:06.244Z,8.90
2018-09-05T19:30:35.470Z,10.43
2018-09-05T19:33:04.888Z,10.80
2018-09-05T19:35:34.260Z,11.67
2018-09-05T19:38:03.907Z,10.60
2018-09-05T19:40:32.992Z,15.30
2018-09-05T19:43:02.304Z,13.70
2018-09-05T19:45:31.671Z,14.17
2018-09-05T19:48:01.124Z,18.20
2018-09-05T19:50:30.228Z,8.77
2018-09-05T19:52:59.432Z,14.70
2018-09-05T19:55:28.671Z,12.40
2018-09-05T19:57:57.735Z,11.30
2018-09-05T20:00:26.948Z,10.87
2018-09-05T20:02:56.233Z,9.73
2018-09-05T20:05:25.333Z,9.77
2018-09-05T20:07:54.518Z,10.37
2018-09-05T20:10:24.811Z,10.97
2018-09-05T20:12:54.059Z,15.27
2018-09-05T20:15:23.341Z,11.23
2018-09-05T20:17:52.420Z,10.20
2018-09-05T20:20:21.555Z,11.87
2018-09-05T20:22:50.704Z,10.40
2018-09-05T20:25:19.819Z,10.63
2018-09-05T20:27:49.130Z,10.30
2018-09-05T20:30:18.171Z,15.50
2018-09-05T20:32:47.236Z,12.87
2018-09-05T20:35:16.552Z,10.20
2018-09-05T20:37:45.704Z,11.73
2018-09-05T20:40:14.980Z,15.73
2018-09-05T20:42:44.098Z,10.23
2018-09-05T20:45:13.520Z,10.57
2018-09-05T20:47:42.632Z,13.30
2018-09-05T20:50:11.705Z,10.90
2018-09-05T20:52:40.825Z,11.07
2018-09-05T20:55:09.956Z,10.70
2018-09-05T20:57:39.007Z,13.10
2018-09-05T21:00:08.098Z,10.50
2018-09-05T21:02:37.182Z,9.93
2018-09-05T21:05:06.394Z,11.37
2018-09-05T21:07:35.539Z,9.57
2018-09-05T21:10:04.856Z,12.30
2018-09-05T21:12:33.944Z,10.27
2018-09-05T21:15:03.037Z,8.83
2018-09-05T21:17:32.151Z,11.43
2018-09-05T21:20:01.369Z,10.53
2018-09-05T21:22:30.431Z,10.00
2018-09-05T21:24:59.634Z,10.77
2018-09-05T21:27:29.065Z,12.20
2018-09-05T21:29:58.167Z,12.53
2018-09-05T21:32:27.386Z,10.20
2018-09-05T21:34:56.608Z,11.70
2018-09-05T21:37:26.334Z,14.03
2018-09-05T21:39:55.455Z,10.97
2018-09-05T21:42:24.524Z,11.23
2018-09-05T21:44:53.704Z,14.27
2018-09-05T21:47:22.944Z,12.60
2018-09-05T21:49:52.103Z,9.90
2018-09-05T21:52:21.340Z,11.97
2018-09-05T21:54:50.480Z,19.63
2018-09-05T21:57:19.632Z,11.67
2018-09-05T21:59:48.667Z,12.10
2018-09-05T22:02:17.899Z,11.77
2018-09-05T22:04:46.980Z,11.13
2018-09-05T22:07:16.262Z,8.13
2018-09-05T22:09:45.564Z,15.83
2018-09-05T22:12:14.852Z,10.90
2018-09-05T22:14:44.109Z,9.97
2018-09-05T22:17:13.395Z,13.37
2018-09-05T22:19:42.749Z,13.83
2018-09-05T22:22:12.097Z,9.77
2018-09-05T22:24:41.173Z,15.03
2018-09-05T22:27:10.412Z,12.03
2018-09-05T22:29:39.703Z,10.80
2018-09-05T22:32:09.023Z,10.00
2018-09-05T22:34:38.222Z,13.20
2018-09-05T22:37:07.442Z,15.57
2018-09-05T22:39:37.064Z,13.10
2018-09-05T22:42:06.381Z,10.53
2018-09-05T22:44:46.881Z,11.27
2018-09-05T22:48:35.569Z,12.80
2018-09-05T22:53:25.467Z,12.60
2018-09-05T22:56:17.777Z,13.90
2018-09-05T23:00:22.421Z,13.70
2018-09-05T23:04:08.265Z,13.37
2018-09-05T23:07:09.275Z,12.93
2018-09-05T23:09:49.521Z,13.70
2018-09-05T23:12:29.969Z,13.40
2018-09-05T23:15:10.349Z,11.50
2018-09-05T23:19:53.155Z,11.40
2018-09-05T23:22:22.769Z,12.63
2018-09-05T23:24:52.679Z,13.20
2018-09-05T23:27:21.890Z,11.43
2018-09-05T23:29:50.986Z,13.27
2018-09-05T23:32:20.272Z,8.60
2018-09-05T23:34:49.379Z,13.57
2018-09-05T23:37:18.476Z,12.80
2018-09-05T23:39:47.617Z,12.20
2018-09-05T23:42:16.961Z,11.10
2018-09-05T23:44:46.050Z,12.07
2018-09-05T23:47:15.366Z,16.10
2018-09-05T23:49:44.536Z,12.47
2018-09-05T23:52:14.292Z,15.70
2018-09-05T23:54:43.426Z,15.77
2018-09-05T23:57:12.652Z,14.27
2018-09-05T23:59:41.998Z,12.97
